Time;durP1;ratioP1;P1;durP2;ratioP2;P2;SDS_P1;SDS_P2;PMS_P1;PMS_P2;Temp;Humidity;BMP_temperature;BMP_pressure;BME280_temperature;BME280_humidity;BME280_pressure;Samples;Min_cycle;Max_cycle;Signal;HPM_P1;HPM_P2
2023/01/06 00:01:53;;;;;;;33.45;12.82;;;10.00;99.90;;;;;;5070357;28;20308;-79
2023/01/06 00:04:18;;;;;;;35.67;12.95;;;10.00;99.90;;;;;;5071273;28;20048;-79
2023/01/06 00:06:44;;;;;;;34.25;12.63;;;10.00;99.90;;;;;;5069932;28;20052;-79
2023/01/06 00:09:10;;;;;;;35.42;13.23;;;10.00;99.90;;;;;;5071063;28;20052;-79
2023/01/06 00:11:36;;;;;;;36.97;13.48;;;10.00;99.90;;;;;;5070954;28;20049;-79
2023/01/06 00:14:02;;;;;;;37.05;12.07;;;10.10;99.90;;;;;;5071371;28;20051;-79
2023/01/06 00:16:28;;;;;;;28.48;11.35;;;10.00;99.90;;;;;;5070896;28;20139;-79
2023/01/06 00:18:56;;;;;;;34.38;13.30;;;10.10;99.90;;;;;;5070282;28;20053;-79
2023/01/06 00:21:22;;;;;;;34.10;11.18;;;10.10;99.90;;;;;;5070881;28;20052;-79
2023/01/06 00:23:48;;;;;;;34.72;13.35;;;10.10;99.90;;;;;;5069898;28;20049;-79
2023/01/06 00:26:14;;;;;;;35.38;11.23;;;10.10;99.90;;;;;;5070115;28;20052;-80
2023/01/06 00:28:40;;;;;;;26.83;11.32;;;10.20;99.90;;;;;;5070011;28;20045;-79
2023/01/06 00:31:11;;;;;;;23.92;10.85;;;10.20;99.90;;;;;;5071083;28;20122;-78
2023/01/06 00:33:37;;;;;;;23.05;9.88;;;10.20;99.90;;;;;;5070812;28;20101;-79
2023/01/06 00:36:04;;;;;;;28.10;10.13;;;10.20;99.90;;;;;;5070998;28;20051;-79
2023/01/06 00:38:30;;;;;;;25.08;9.35;;;10.20;99.90;;;;;;5070466;28;20481;-79
2023/01/06 00:40:55;;;;;;;23.58;10.98;;;10.20;99.90;;;;;;5070261;28;20106;-79
2023/01/06 00:43:21;;;;;;;27.88;9.93;;;10.20;99.90;;;;;;5072737;28;20045;-79
2023/01/06 00:45:47;;;;;;;26.00;10.73;;;10.10;99.90;;;;;;5074982;28;20047;-79
2023/01/06 00:48:12;;;;;;;25.90;9.48;;;10.20;99.90;;;;;;5074396;28;20044;-78
2023/01/06 00:50:38;;;;;;;22.30;8.40;;;10.20;99.90;;;;;;5074442;28;20432;-79
2023/01/06 00:53:04;;;;;;;19.05;8.30;;;10.10;99.90;;;;;;5072934;28;20086;-79
2023/01/06 00:55:30;;;;;;;23.15;9.00;;;10.20;99.90;;;;;;5072765;28;20048;-79
2023/01/06 00:57:55;;;;;;;19.77;8.02;;;10.20;99.90;;;;;;5074786;28;20052;-78
2023/01/06 01:00:21;;;;;;;20.67;7.80;;;10.30;99.90;;;;;;5074324;28;20048;-79
2023/01/06 01:02:47;;;;;;;15.65;6.50;;;10.20;99.90;;;;;;5074155;28;20047;-78
2023/01/06 01:05:13;;;;;;;15.45;6.68;;;10.20;99.90;;;;;;5074668;28;20109;-78
2023/01/06 01:07:39;;;;;;;16.85;6.20;;;10.20;99.90;;;;;;5073458;28;20049;-78
2023/01/06 01:10:06;;;;;;;18.05;6.40;;;10.30;99.90;;;;;;5074325;28;20525;-79
2023/01/06 01:12:32;;;;;;;15.85;6.72;;;10.20;99.90;;;;;;5073012;28;20446;-78
2023/01/06 01:14:57;;;;;;;21.55;8.18;;;10.20;99.90;;;;;;5074688;28;20177;-78
2023/01/06 01:17:31;;;;;;;15.75;6.53;;;10.20;99.90;;;;;;5073759;28;20478;-78
2023/01/06 01:19:58;;;;;;;18.92;5.85;;;10.20;99.90;;;;;;5073103;28;20102;-78
2023/01/06 01:22:26;;;;;;;18.02;6.00;;;10.20;99.90;;;;;;5073312;28;20056;-78
2023/01/06 01:24:51;;;;;;;13.35;5.75;;;10.10;99.90;;;;;;5072880;28;20398;-78
2023/01/06 01:27:18;;;;;;;17.50;5.82;;;10.20;99.90;;;;;;5074148;28;20048;-78
2023/01/06 01:29:44;;;;;;;24.45;6.35;;;10.20;99.90;;;;;;5072941;28;20091;-78
2023/01/06 01:32:09;;;;;;;15.23;6.07;;;10.20;99.90;;;;;;5073741;28;20084;-78
2023/01/06 01:34:35;;;;;;;13.10;5.78;;;10.10;99.90;;;;;;5073620;28;20040;-79
2023/01/06 01:37:01;;;;;;;11.93;6.05;;;10.10;99.90;;;;;;5073301;28;20091;-79
2023/01/06 01:39:29;;;;;;;14.77;5.95;;;10.10;99.90;;;;;;5073601;28;20115;-78
2023/01/06 01:41:56;;;;;;;15.88;6.10;;;10.10;99.90;;;;;;5073864;28;20099;-78
2023/01/06 01:44:49;;;;;;;15.32;5.57;;;10.10;99.90;;;;;;5073532;28;20040;-79
2023/01/06 01:47:24;;;;;;;11.00;5.97;;;10.10;99.90;;;;;;5073546;28;20477;-78
2023/01/06 01:49:53;;;;;;;17.08;6.00;;;10.10;99.90;;;;;;5072911;28;20052;-78
2023/01/06 01:52:20;;;;;;;16.90;6.18;;;10.00;99.90;;;;;;5073110;28;20076;-78
2023/01/06 01:54:48;;;;;;;14.15;5.50;;;10.00;99.90;;;;;;5073006;28;20067;-78
2023/01/06 01:57:26;;;;;;;13.70;5.65;;;10.10;99.90;;;;;;5073230;28;20533;-78
2023/01/06 01:59:52;;;;;;;13.70;6.07;;;10.10;99.90;;;;;;5073665;28;20045;-78
2023/01/06 02:02:19;;;;;;;;;;;10.10;99.90;;;;;;5073704;28;20097;-78
2023/01/06 02:04:50;;;;;;;14.15;5.70;;;10.10;99.90;;;;;;5073177;28;19924;-78
2023/01/06 02:07:16;;;;;;;10.88;4.97;;;10.10;99.90;;;;;;5072821;28;20052;-78
2023/01/06 02:10:01;;;;;;;9.75;5.15;;;10.10;99.90;;;;;;5072977;28;20060;-79
2023/01/06 02:12:27;;;;;;;17.02;5.53;;;10.10;99.90;;;;;;5072917;28;20455;-78
2023/01/06 02:14:52;;;;;;;;;;;10.20;99.90;;;;;;5071918;28;20423;-79
2023/01/06 02:18:06;;;;;;;12.50;4.95;;;10.10;99.90;;;;;;5072312;28;19928;-78
2023/01/06 02:21:21;;;;;;;13.60;4.55;;;10.10;99.90;;;;;;5059235;28;20121;-78
2023/01/06 02:24:08;;;;;;;9.63;4.82;;;10.20;99.90;;;;;;5009964;28;20582;-79
2023/01/06 02:26:54;;;;;;;15.75;4.75;;;10.10;99.90;;;;;;5010235;28;20045;-78
2023/01/06 02:29:20;;;;;;;10.57;4.80;;;10.10;99.90;;;;;;5062272;28;20052;-78
2023/01/06 02:31:51;;;;;;;13.77;4.63;;;10.10;99.90;;;;;;5072023;28;20089;-79
2023/01/06 02:34:32;;;;;;;10.52;4.80;;;10.10;99.90;;;;;;5073031;28;20044;-79
2023/01/06 02:37:04;;;;;;;11.70;4.57;;;10.10;99.90;;;;;;5071853;28;20577;-79
2023/01/06 02:39:48;;;;;;;8.60;4.00;;;10.10;99.90;;;;;;5072478;28;20130;-78
2023/01/06 02:42:38;;;;;;;10.35;4.00;;;10.10;99.90;;;;;;5072454;28;20044;-79
2023/01/06 02:45:10;;;;;;;11.25;4.43;;;10.10;99.90;;;;;;5071797;28;20110;-79
2023/01/06 02:47:56;;;;;;;9.13;4.03;;;10.10;99.90;;;;;;5071948;28;20044;-79
2023/01/06 02:50:58;;;;;;;7.53;4.15;;;10.10;99.90;;;;;;5061370;28;20603;-79
2023/01/06 02:53:46;;;;;;;8.82;4.07;;;10.10;99.90;;;;;;5069980;28;20452;-79
2023/01/06 02:56:12;;;;;;;7.85;3.72;;;10.20;99.90;;;;;;5060319;28;20055;-79
2023/01/06 02:58:47;;;;;;;8.85;4.00;;;10.20;99.90;;;;;;5071704;28;20044;-79
2023/01/06 03:01:36;;;;;;;13.23;4.68;;;10.10;99.90;;;;;;5071725;28;20358;-79
2023/01/06 03:04:08;;;;;;;10.82;4.85;;;10.10;99.90;;;;;;5072409;28;20048;-79
2023/01/06 03:06:36;;;;;;;9.40;5.53;;;10.10;99.90;;;;;;5070800;28;20047;-79
2023/01/06 03:09:04;;;;;;;11.93;5.00;;;10.10;99.90;;;;;;5071924;28;20060;-79
2023/01/06 03:11:32;;;;;;;14.13;6.30;;;10.10;99.90;;;;;;5053862;28;20088;-79
2023/01/06 03:14:22;;;;;;;13.63;6.28;;;10.10;99.90;;;;;;5072149;28;20055;-79
2023/01/06 03:16:47;;;;;;;13.90;6.28;;;10.10;99.90;;;;;;5071453;28;20070;-78
2023/01/06 03:19:14;;;;;;;16.95;7.28;;;10.10;99.90;;;;;;5070887;28;20386;-79
2023/01/06 03:21:41;;;;;;;;;;;10.00;99.90;;;;;;5071711;28;20173;-79
2023/01/06 03:24:07;;;;;;;;;;;10.00;99.90;;;;;;5072345;28;20328;-79
2023/01/06 03:26:34;;;;;;;14.27;7.97;;;10.00;99.90;;;;;;5070611;28;20023;-79
2023/01/06 03:29:02;;;;;;;18.15;8.32;;;10.00;99.90;;;;;;5071780;28;20048;-79
2023/01/06 03:31:43;;;;;;;17.20;7.90;;;10.00;99.90;;;;;;5071434;28;20048;-80
2023/01/06 03:34:44;;;;;;;18.05;8.57;;;10.00;99.90;;;;;;5071905;28;20041;-79
2023/01/06 03:37:36;;;;;;;16.38;8.20;;;10.00;99.90;;;;;;5070930;28;20055;-78
2023/01/06 03:40:34;;;;;;;17.33;8.55;;;10.00;99.90;;;;;;5071666;28;20494;-79
2023/01/06 03:43:12;;;;;;;;;;;10.00;99.90;;;;;;5072428;28;20505;-78
2023/01/06 03:45:40;;;;;;;;;;;10.00;99.90;;;;;;5071061;28;19920;-79
2023/01/06 03:48:18;;;;;;;16.50;8.50;;;10.00;99.90;;;;;;5070510;28;19962;-79
2023/01/06 03:51:00;;;;;;;16.88;7.80;;;10.00;99.90;;;;;;5071488;28;20056;-79
2023/01/06 03:53:47;;;;;;;15.70;8.30;;;10.00;99.90;;;;;;5071098;28;20044;-79
2023/01/06 03:56:24;;;;;;;15.90;7.88;;;10.00;99.90;;;;;;5070540;28;20048;-79
2023/01/06 03:58:53;;;;;;;15.13;7.57;;;10.00;99.90;;;;;;5070470;28;20594;-79
2023/01/06 04:01:22;;;;;;;15.32;6.65;;;10.00;99.90;;;;;;5070476;28;20049;-79
2023/01/06 04:03:54;;;;;;;14.05;7.70;;;10.00;99.90;;;;;;5070033;28;20219;-79
2023/01/06 04:06:20;;;;;;;16.27;7.20;;;10.00;99.90;;;;;;5071369;28;20119;-79
2023/01/06 04:08:46;;;;;;;11.45;6.70;;;10.10;99.90;;;;;;5070499;28;20064;-79
2023/01/06 04:12:37;;;;;;;13.40;6.82;;;10.00;99.90;;;;;;5071518;28;20393;-79
2023/01/06 04:13:58;;;;;;;12.85;6.70;;;10.00;99.90;;;;;;5071184;28;20637;-79
2023/01/06 04:16:24;;;;;;;16.27;6.20;;;10.00;99.90;;;;;;5071082;28;20048;-79
2023/01/06 04:18:50;;;;;;;19.58;6.88;;;10.00;99.90;;;;;;5073888;28;20075;-79
2023/01/06 04:21:16;;;;;;;11.05;6.03;;;10.00;99.90;;;;;;5075001;28;20041;-79
2023/01/06 04:23:41;;;;;;;14.60;6.50;;;10.00;99.90;;;;;;5074664;28;20629;-79
2023/01/06 04:26:07;;;;;;;11.02;6.32;;;10.00;99.90;;;;;;5075304;28;20393;-80
2023/01/06 04:28:33;;;;;;;10.50;5.32;;;10.00;99.90;;;;;;5075231;28;20102;-80
2023/01/06 04:30:59;;;;;;;10.77;5.28;;;10.00;99.90;;;;;;5075257;28;20127;-79
2023/01/06 04:33:25;;;;;;;10.98;5.53;;;10.00;99.90;;;;;;5073653;28;20135;-79
2023/01/06 04:35:51;;;;;;;13.05;5.30;;;10.00;99.90;;;;;;5074546;28;20195;-80
2023/01/06 04:38:16;;;;;;;9.77;5.00;;;10.00;99.90;;;;;;5074438;28;20051;-79
2023/01/06 04:40:42;;;;;;;10.50;5.70;;;10.00;99.90;;;;;;5073203;28;20051;-79
2023/01/06 04:43:14;;;;;;;9.95;4.90;;;10.00;99.90;;;;;;5075052;28;20106;-79
2023/01/06 04:45:41;;;;;;;12.13;4.75;;;10.00;99.90;;;;;;5073707;28;20405;-79
2023/01/06 04:48:08;;;;;;;12.25;4.63;;;10.00;99.90;;;;;;5074642;28;20048;-79
2023/01/06 04:50:34;;;;;;;7.40;4.00;;;10.00;99.90;;;;;;5072718;28;20110;-80
2023/01/06 04:52:59;;;;;;;11.77;3.88;;;10.00;99.90;;;;;;5073272;28;20044;-79
2023/01/06 04:55:26;;;;;;;7.93;4.22;;;10.00;99.90;;;;;;5074702;28;20047;-79
2023/01/06 04:57:51;;;;;;;;;;;10.00;99.90;;;;;;5074770;28;20710;-79
2023/01/06 05:00:17;;;;;;;7.68;3.78;;;10.00;99.90;;;;;;5074680;28;19994;-80
2023/01/06 05:02:43;;;;;;;8.50;4.40;;;10.00;99.90;;;;;;5073933;28;20049;-79
2023/01/06 05:05:10;;;;;;;6.68;3.63;;;10.00;99.90;;;;;;5074612;28;20474;-79
2023/01/06 05:07:36;;;;;;;8.82;4.25;;;10.00;99.90;;;;;;5072192;28;20059;-79
2023/01/06 05:10:03;;;;;;;9.30;3.80;;;10.00;99.90;;;;;;5074566;28;20052;-79
2023/01/06 05:12:30;;;;;;;7.15;3.65;;;10.00;99.90;;;;;;5074463;28;20098;-79
2023/01/06 05:14:56;;;;;;;8.48;3.45;;;10.00;99.90;;;;;;5072891;28;20076;-79
2023/01/06 05:17:21;;;;;;;8.35;3.78;;;10.00;99.90;;;;;;5074147;28;20478;-79
2023/01/06 05:19:47;;;;;;;13.30;3.85;;;10.00;99.90;;;;;;5074076;28;20045;-79
2023/01/06 05:22:13;;;;;;;8.13;4.05;;;10.00;99.90;;;;;;5073727;28;20047;-79
2023/01/06 05:24:38;;;;;;;9.25;3.55;;;10.00;99.90;;;;;;5073465;28;20110;-79
2023/01/06 05:27:04;;;;;;;6.38;3.05;;;10.00;99.90;;;;;;5074007;28;20044;-79
2023/01/06 05:29:30;;;;;;;7.30;2.90;;;10.00;99.90;;;;;;5073693;28;20505;-79
2023/01/06 05:31:56;;;;;;;6.50;3.60;;;10.00;99.90;;;;;;5072493;28;20120;-79
2023/01/06 05:34:21;;;;;;;5.97;3.10;;;10.00;99.90;;;;;;5074144;28;20048;-80
2023/01/06 05:36:47;;;;;;;6.70;3.28;;;10.00;99.90;;;;;;5072996;28;20052;-79
2023/01/06 05:39:13;;;;;;;9.15;3.10;;;10.00;99.90;;;;;;5074065;28;20432;-79
2023/01/06 05:41:38;;;;;;;6.07;2.90;;;10.00;99.90;;;;;;5073254;28;20059;-80
2023/01/06 05:44:04;;;;;;;5.32;2.60;;;10.10;99.90;;;;;;5074011;28;20040;-79
2023/01/06 05:46:30;;;;;;;6.25;2.67;;;10.10;99.90;;;;;;5072231;28;20052;-79
2023/01/06 05:48:55;;;;;;;5.65;2.45;;;10.10;99.90;;;;;;5073421;28;20048;-79
2023/01/06 05:51:21;;;;;;;5.72;2.65;;;10.10;99.90;;;;;;5073665;28;20577;-79
2023/01/06 05:53:47;;;;;;;7.30;2.50;;;10.10;99.90;;;;;;5073014;28;20048;-79
2023/01/06 05:56:14;;;;;;;;;;;10.10;99.90;;;;;;5074038;28;20041;-79
2023/01/06 05:58:44;;;;;;;7.90;3.42;;;10.10;99.90;;;;;;5072020;28;19920;-80
2023/01/06 06:01:18;;;;;;;9.55;3.03;;;10.10;99.90;;;;;;5073328;28;20052;-79
2023/01/06 06:03:44;;;;;;;5.18;2.60;;;10.10;99.90;;;;;;5072916;28;20080;-79
2023/01/06 06:06:10;;;;;;;4.95;2.50;;;10.10;99.90;;;;;;5072125;28;20087;-79
2023/01/06 06:08:36;;;;;;;6.20;2.28;;;10.10;99.90;;;;;;5072664;28;20064;-79
2023/01/06 06:11:11;;;;;;;4.70;2.33;;;10.10;99.90;;;;;;5071324;28;20076;-79
2023/01/06 06:13:38;;;;;;;6.85;2.45;;;10.10;99.90;;;;;;5073417;28;20037;-79
2023/01/06 06:16:10;;;;;;;7.20;2.22;;;10.10;99.90;;;;;;5073204;28;20102;-79
2023/01/06 06:18:41;;;;;;;4.40;2.20;;;10.10;99.90;;;;;;5073002;28;20482;-79
2023/01/06 06:21:08;;;;;;;4.85;2.33;;;10.10;99.90;;;;;;5072912;28;20048;-79
2023/01/06 06:23:34;;;;;;;6.15;2.00;;;10.10;99.90;;;;;;5072768;28;20398;-79
2023/01/06 06:26:00;;;;;;;;;;;10.10;99.90;;;;;;5073078;28;20040;-79
2023/01/06 06:28:28;;;;;;;3.22;2.00;;;10.10;99.90;;;;;;5073039;28;19920;-79
2023/01/06 06:30:54;;;;;;;8.00;2.38;;;10.10;99.90;;;;;;5072558;28;20562;-79
2023/01/06 06:33:19;;;;;;;6.22;2.30;;;10.10;99.90;;;;;;5071640;28;20052;-79
2023/01/06 06:35:56;;;;;;;8.05;2.08;;;10.10;99.90;;;;;;5071204;28;20047;-79
2023/01/06 06:38:21;;;;;;;4.93;2.13;;;10.00;99.90;;;;;;5072508;28;20080;-79
2023/01/06 06:40:47;;;;;;;5.10;2.08;;;10.00;99.90;;;;;;5071300;28;20044;-79
2023/01/06 06:43:12;;;;;;;4.45;2.13;;;10.00;99.90;;;;;;5071748;28;20051;-78
2023/01/06 06:45:38;;;;;;;6.00;1.90;;;10.00;99.90;;;;;;5072685;28;20086;-78
2023/01/06 06:48:04;;;;;;;5.85;2.42;;;10.00;99.90;;;;;;5071062;28;20110;-78
2023/01/06 06:50:30;;;;;;;;;;;9.90;99.90;;;;;;5072061;28;20130;-78
2023/01/06 06:52:55;;;;;;;7.05;2.30;;;9.90;99.90;;;;;;5071598;28;20361;-78
2023/01/06 06:55:21;;;;;;;8.27;2.28;;;9.90;99.90;;;;;;5072042;28;20069;-79
2023/01/06 06:57:47;;;;;;;6.07;2.40;;;9.90;99.90;;;;;;5070942;28;20051;-78
2023/01/06 07:00:13;;;;;;;9.85;3.28;;;9.80;99.90;;;;;;5072436;28;20110;-78
2023/01/06 07:02:38;;;;;;;;;;;9.80;99.90;;;;;;5072511;28;20051;-78
2023/01/06 07:05:04;;;;;;;6.28;2.95;;;9.70;99.90;;;;;;5054173;28;19928;-77
2023/01/06 07:07:30;;;;;;;6.50;3.08;;;9.60;99.90;;;;;;5071615;28;20044;-78
2023/01/06 07:09:55;;;;;;;6.55;2.42;;;9.60;99.90;;;;;;5071910;28;20477;-77
2023/01/06 07:12:21;;;;;;;9.95;3.15;;;9.60;99.90;;;;;;5071110;28;20482;-79
2023/01/06 07:14:47;;;;;;;8.02;3.92;;;9.60;99.90;;;;;;5070850;28;20041;-77
2023/01/06 07:17:12;;;;;;;8.18;2.80;;;9.50;99.90;;;;;;5071232;28;20080;-77
2023/01/06 07:19:38;;;;;;;7.68;3.08;;;9.50;99.90;;;;;;5071573;28;20056;-77
2023/01/06 07:22:04;;;;;;;9.23;2.75;;;9.50;99.90;;;;;;5070998;28;20618;-77
2023/01/06 07:24:29;;;;;;;7.68;2.75;;;9.50;99.90;;;;;;5072066;28;20478;-77
2023/01/06 07:26:55;;;;;;;7.43;3.17;;;9.40;99.90;;;;;;5070314;28;20099;-77
2023/01/06 07:29:20;;;;;;;6.45;3.45;;;9.50;99.90;;;;;;5072058;28;20050;-77
2023/01/06 07:31:46;;;;;;;6.70;3.05;;;9.40;99.90;;;;;;5071320;28;20089;-80
2023/01/06 07:34:12;;;;;;;8.65;3.08;;;9.50;99.90;;;;;;5071900;28;20052;-78
2023/01/06 07:36:37;;;;;;;10.35;3.05;;;9.40;99.90;;;;;;5071108;28;20496;-77
2023/01/06 07:39:03;;;;;;;9.30;3.50;;;9.50;99.90;;;;;;5070175;28;20062;-77
2023/01/06 07:41:31;;;;;;;6.55;3.22;;;9.50;99.90;;;;;;5071531;28;20060;-75
2023/01/06 07:43:56;;;;;;;7.00;3.28;;;9.50;99.90;;;;;;5071391;28;20045;-77
2023/01/06 07:46:22;;;;;;;7.50;3.38;;;9.50;99.90;;;;;;5071682;28;20044;-76
2023/01/06 07:48:48;;;;;;;7.90;3.60;;;9.50;99.90;;;;;;5071341;28;20053;-76
2023/01/06 07:51:13;;;;;;;12.57;3.55;;;9.60;99.90;;;;;;5071392;28;20048;-77
2023/01/06 07:53:39;;;;;;;10.07;3.65;;;9.60;99.90;;;;;;5071314;28;20500;-75
2023/01/06 07:56:05;;;;;;;7.95;3.47;;;9.60;99.90;;;;;;5071079;28;20207;-75
2023/01/06 07:58:31;;;;;;;;;;;9.60;99.90;;;;;;5071818;28;20063;-78
2023/01/06 08:00:56;;;;;;;8.98;3.92;;;9.60;99.90;;;;;;5071251;28;20357;-76
2023/01/06 08:03:22;;;;;;;9.60;3.70;;;9.60;99.90;;;;;;5070454;28;20049;-77
2023/01/06 08:05:48;;;;;;;9.15;3.53;;;9.60;99.90;;;;;;5071257;28;20048;-81
2023/01/06 08:08:14;;;;;;;9.63;3.55;;;9.60;99.90;;;;;;5070126;28;20048;-77
2023/01/06 08:10:41;;;;;;;9.85;3.97;;;9.60;99.90;;;;;;5070054;28;20094;-73
2023/01/06 08:13:08;;;;;;;7.15;3.83;;;9.60;99.90;;;;;;5071187;28;20674;-78
2023/01/06 08:15:36;;;;;;;9.13;3.85;;;9.60;99.90;;;;;;5071257;28;20045;-79
2023/01/06 08:18:02;;;;;;;8.75;4.13;;;9.60;99.90;;;;;;5069849;28;20060;-75
2023/01/06 08:20:27;;;;;;;10.57;4.47;;;9.60;99.90;;;;;;5071181;28;20040;-72
2023/01/06 08:22:53;;;;;;;7.63;3.72;;;9.60;99.90;;;;;;5070780;28;20071;-74
2023/01/06 08:25:19;;;;;;;7.25;3.80;;;9.60;99.90;;;;;;5071389;28;20036;-76
2023/01/06 08:27:44;;;;;;;4.75;2.80;;;9.60;99.90;;;;;;5071575;28;20538;-72
2023/01/06 08:30:11;;;;;;;6.35;3.05;;;9.70;99.90;;;;;;5071360;28;20040;-71
2023/01/06 08:32:36;;;;;;;7.50;3.00;;;9.70;99.90;;;;;;5070749;28;20080;-76
2023/01/06 08:35:02;;;;;;;4.88;2.45;;;9.80;99.90;;;;;;5070808;28;20133;-74
2023/01/06 08:37:28;;;;;;;4.20;2.38;;;9.80;99.90;;;;;;5070535;28;20103;-74
2023/01/06 08:39:53;;;;;;;5.82;3.05;;;9.80;99.90;;;;;;5070712;28;20371;-74
2023/01/06 08:42:19;;;;;;;5.07;3.22;;;9.80;99.90;;;;;;5071210;28;20045;-73
2023/01/06 08:44:46;;;;;;;5.85;2.33;;;9.70;99.90;;;;;;5071335;28;20048;-73
2023/01/06 08:47:11;;;;;;;5.35;1.90;;;9.70;99.90;;;;;;5070566;28;20044;-74
2023/01/06 08:49:37;;;;;;;5.90;1.48;;;9.70;99.90;;;;;;5071007;28;20098;-74
2023/01/06 08:52:03;;;;;;;2.28;1.30;;;9.60;99.90;;;;;;5070147;28;20512;-73
2023/01/06 08:54:29;;;;;;;4.80;1.20;;;9.50;99.90;;;;;;5071104;28;20048;-74
2023/01/06 08:56:56;;;;;;;2.50;2.10;;;9.50;99.90;;;;;;5070584;28;20103;-73
2023/01/06 08:59:22;;;;;;;5.78;1.40;;;9.40;99.90;;;;;;5071079;28;20478;-73
2023/01/06 09:01:47;;;;;;;2.25;1.17;;;9.40;99.90;;;;;;5070650;28;20045;-74
2023/01/06 09:04:13;;;;;;;7.03;1.80;;;9.30;99.90;;;;;;5071051;28;20049;-74
2023/01/06 09:06:42;;;;;;;5.65;1.48;;;9.30;99.90;;;;;;5074099;28;20060;-73
2023/01/06 09:09:08;;;;;;;2.83;1.38;;;9.20;99.90;;;;;;5073667;28;20053;-73
2023/01/06 09:11:35;;;;;;;3.25;1.20;;;9.30;99.90;;;;;;5074453;28;20044;-73
2023/01/06 09:14:00;;;;;;;3.75;1.85;;;9.20;99.90;;;;;;5074105;28;20379;-73
2023/01/06 09:16:26;;;;;;;6.40;1.27;;;9.20;99.90;;;;;;5074250;28;20101;-74
2023/01/06 09:18:52;;;;;;;9.65;1.23;;;9.30;99.90;;;;;;5074112;28;20123;-78
2023/01/06 09:21:22;;;;;;;3.53;1.40;;;9.20;99.90;;;;;;5073940;28;20045;-73
2023/01/06 09:23:48;;;;;;;4.05;1.13;;;9.30;99.90;;;;;;5073759;28;20086;-74
2023/01/06 09:26:15;;;;;;;5.93;1.23;;;9.30;99.90;;;;;;5073464;28;20090;-80
2023/01/06 09:28:41;;;;;;;5.13;1.17;;;9.20;99.90;;;;;;5073187;28;20500;-76
2023/01/06 09:31:07;;;;;;;5.43;0.93;;;9.30;99.90;;;;;;5073755;28;20127;-77
2023/01/06 09:33:33;;;;;;;;;;;9.30;99.90;;;;;;5073588;28;20047;-77
2023/01/06 09:35:58;;;;;;;5.38;0.93;;;9.40;99.90;;;;;;5072727;28;19921;-78
2023/01/06 09:38:25;;;;;;;7.13;1.42;;;9.40;99.90;;;;;;5072937;28;20048;-77
2023/01/06 09:40:50;;;;;;;3.83;1.23;;;9.50;99.90;;;;;;5073435;28;20074;-78
2023/01/06 09:43:39;;;;;;;3.45;1.00;;;9.50;99.90;;;;;;5073571;28;20481;-76
2023/01/06 09:46:06;;;;;;;3.63;1.33;;;9.50;99.90;;;;;;5073085;28;20048;-77
2023/01/06 09:48:43;;;;;;;6.20;1.20;;;9.50;99.90;;;;;;5073457;28;20174;-75
2023/01/06 09:51:16;;;;;;;4.45;1.35;;;9.50;99.90;;;;;;5073070;28;20375;-78
2023/01/06 09:53:47;;;;;;;9.25;1.48;;;9.50;99.90;;;;;;5070358;28;20434;-75
2023/01/06 09:56:15;;;;;;;4.90;1.88;;;9.40;99.90;;;;;;5071905;28;20123;-73
2023/01/06 09:59:03;;;;;;;4.03;1.70;;;9.50;99.90;;;;;;5072026;28;20045;-76
2023/01/06 10:01:39;;;;;;;4.40;1.42;;;9.40;99.90;;;;;;5072114;28;20053;-73
2023/01/06 10:04:04;;;;;;;2.20;1.05;;;9.40;99.90;;;;;;5071607;28;20566;-75
2023/01/06 10:06:43;;;;;;;3.13;0.93;;;9.40;99.90;;;;;;5071728;28;20128;-76
2023/01/06 10:09:21;;;;;;;6.00;1.20;;;9.40;99.90;;;;;;5071484;28;20060;-77
2023/01/06 10:12:07;;;;;;;5.28;0.90;;;9.40;99.90;;;;;;5071109;28;20523;-75
2023/01/06 10:14:46;;;;;;;4.22;1.20;;;9.40;99.90;;;;;;5072402;28;20040;-76
2023/01/06 10:17:31;;;;;;;6.97;1.15;;;9.40;99.90;;;;;;5071872;28;20040;-75
2023/01/06 10:20:13;;;;;;;7.07;1.60;;;9.50;99.90;;;;;;5072170;28;20052;-80
2023/01/06 10:23:29;;;;;;;9.07;1.10;;;9.50;99.90;;;;;;5071277;28;20098;-76
2023/01/06 10:26:03;;;;;;;8.02;1.35;;;9.50;99.90;;;;;;5045249;28;20092;-76
2023/01/06 10:28:43;;;;;;;11.75;1.50;;;9.50;99.90;;;;;;5071676;28;20052;-77
2023/01/06 10:31:15;;;;;;;3.85;1.08;;;9.60;99.90;;;;;;5071242;28;20476;-79
2023/01/06 10:33:49;;;;;;;5.13;1.13;;;9.60;99.90;;;;;;5070913;28;20036;-77
2023/01/06 10:36:18;;;;;;;3.33;0.98;;;9.60;99.90;;;;;;5071503;28;20058;-76
2023/01/06 10:38:51;;;;;;;2.17;0.77;;;9.70;99.90;;;;;;5070428;28;20052;-76
2023/01/06 10:41:31;;;;;;;7.97;1.60;;;9.70;99.90;;;;;;5071520;28;20143;-76
2023/01/06 10:43:57;;;;;;;3.55;0.90;;;9.80;99.90;;;;;;5071459;28;20040;-76
2023/01/06 10:46:29;;;;;;;6.43;1.30;;;9.80;99.90;;;;;;5070635;28;20102;-77
2023/01/06 10:48:55;;;;;;;2.47;0.88;;;10.00;99.90;;;;;;5071523;28;20059;-77
2023/01/06 10:51:38;;;;;;;;;;;10.10;99.90;;;;;;5036968;28;20076;-78
2023/01/06 10:54:08;;;;;;;4.93;1.13;;;10.10;99.90;;;;;;5070960;28;19920;-78
2023/01/06 10:56:35;;;;;;;5.40;1.17;;;10.20;99.90;;;;;;5071032;28;20051;-76
2023/01/06 10:59:07;;;;;;;7.28;1.40;;;10.30;99.90;;;;;;5071274;28;20136;-80
2023/01/06 11:01:33;;;;;;;6.45;1.58;;;10.40;99.90;;;;;;5071471;28;20045;-76
2023/01/06 11:04:06;;;;;;;;;;;10.60;99.90;;;;;;5071961;28;20045;-77
2023/01/06 11:06:33;;;;;;;5.55;1.30;;;10.70;99.90;;;;;;5071078;28;19926;-78
2023/01/06 11:09:06;;;;;;;7.05;1.35;;;10.90;99.90;;;;;;5071806;28;20417;-75
2023/01/06 11:11:32;;;;;;;14.90;2.63;;;11.10;99.90;;;;;;5071029;28;20098;-76
2023/01/06 11:13:59;;;;;;;;;;;11.30;99.90;;;;;;5072183;28;20507;-76
2023/01/06 11:16:30;;;;;;;11.50;1.98;;;11.60;99.90;;;;;;5071494;28;19931;-77
2023/01/06 11:19:03;;;;;;;7.43;1.20;;;11.80;99.90;;;;;;5071844;28;20186;-78
2023/01/06 11:21:40;;;;;;;5.55;1.30;;;12.10;99.90;;;;;;5070855;28;20048;-77
2023/01/06 11:24:25;;;;;;;5.57;1.13;;;12.40;99.90;;;;;;5071070;28;20045;-77
2023/01/06 11:26:55;;;;;;;6.45;1.00;;;12.70;99.90;;;;;;5071325;28;20044;-78
2023/01/06 11:29:30;;;;;;;6.57;1.73;;;13.00;99.90;;;;;;5071732;28;20119;-77
2023/01/06 11:32:18;;;;;;;5.53;1.00;;;13.20;99.90;;;;;;5071748;28;20084;-78
2023/01/06 11:34:55;;;;;;;10.07;1.73;;;13.50;99.90;;;;;;5070644;28;20052;-78
2023/01/06 11:37:31;;;;;;;;;;;13.70;99.90;;;;;;5070381;28;20036;-79
2023/01/06 11:39:57;;;;;;;5.97;1.13;;;13.70;99.90;;;;;;5070924;28;19973;-77
2023/01/06 11:42:24;;;;;;;5.65;1.33;;;13.60;99.90;;;;;;5070436;28;20602;-79
2023/01/06 11:44:50;;;;;;;13.35;2.17;;;13.50;99.90;;;;;;5070902;28;20110;-78
2023/01/06 11:47:20;;;;;;;5.55;1.48;;;13.60;99.90;;;;;;5070258;28;20048;-78
2023/01/06 11:49:50;;;;;;;5.47;1.20;;;13.70;99.90;;;;;;5070703;28;20049;-78
2023/01/06 11:52:20;;;;;;;8.25;2.33;;;13.60;99.90;;;;;;5069964;28;20103;-78
2023/01/06 11:54:56;;;;;;;11.10;1.95;;;13.40;99.90;;;;;;5070711;28;20052;-78
2023/01/06 11:57:40;;;;;;;4.25;0.98;;;13.00;99.90;;;;;;5070468;28;20056;-78
2023/01/06 12:00:24;;;;;;;5.53;1.33;;;13.10;99.90;;;;;;5070559;28;20090;-81
2023/01/06 12:03:07;;;;;;;4.15;0.90;;;13.40;99.90;;;;;;5070321;28;20055;-78
2023/01/06 12:05:52;;;;;;;3.13;0.77;;;13.90;99.90;;;;;;5070674;28;20075;-78
2023/01/06 12:08:25;;;;;;;4.05;0.90;;;14.60;99.90;;;;;;5070631;28;20101;-79
2023/01/06 12:11:02;;;;;;;4.68;0.98;;;15.10;99.90;;;;;;5071618;28;20476;-79
2023/01/06 12:13:28;;;;;;;6.15;1.42;;;15.50;99.90;;;;;;5071261;28;20053;-79
2023/01/06 12:16:00;;;;;;;;;;;15.80;99.90;;;;;;5071814;28;20040;-78
2023/01/06 12:18:30;;;;;;;7.60;1.30;;;15.50;99.90;;;;;;5070793;28;19929;-78
2023/01/06 12:20:58;;;;;;;7.97;0.98;;;14.90;99.90;;;;;;5071236;28;20052;-80
2023/01/06 12:23:30;;;;;;;4.28;0.90;;;14.10;99.90;;;;;;5070493;28;20106;-78
2023/01/06 12:25:59;;;;;;;6.85;1.30;;;13.60;99.90;;;;;;5071122;28;20079;-78
2023/01/06 12:28:38;;;;;;;8.73;1.83;;;13.40;99.90;;;;;;5070895;28;20399;-78
2023/01/06 12:31:04;;;;;;;7.15;1.95;;;13.00;99.90;;;;;;5069598;28;20102;-78
2023/01/06 12:34:02;;;;;;;8.88;1.00;;;12.70;99.90;;;;;;5070473;28;20060;-78
2023/01/06 12:36:42;;;;;;;2.35;0.88;;;12.30;99.90;;;;;;5070593;28;20277;-81
2023/01/06 12:39:11;;;;;;;3.90;1.10;;;12.10;99.90;;;;;;5054804;28;20084;-80
2023/01/06 12:42:14;;;;;;;8.25;1.42;;;12.10;99.90;;;;;;5074954;28;20105;-78
2023/01/06 12:44:58;;;;;;;7.72;1.60;;;12.20;99.90;;;;;;5074200;28;20044;-80
2023/01/06 12:47:40;;;;;;;7.88;1.85;;;12.40;99.90;;;;;;5071955;28;20094;-79
2023/01/06 12:50:28;;;;;;;4.65;0.93;;;12.60;99.90;;;;;;5074863;28;20048;-79
2023/01/06 12:53:08;;;;;;;5.35;0.95;;;12.70;99.90;;;;;;5074162;28;20084;-79
2023/01/06 12:56:03;;;;;;;5.45;1.25;;;12.60;99.90;;;;;;5073836;28;20371;-79
2023/01/06 12:58:34;;;;;;;6.18;1.90;;;13.10;99.90;;;;;;5060686;28;20696;-80
2023/01/06 13:01:10;;;;;;;4.43;1.00;;;13.60;99.90;;;;;;5074576;28;20423;-79
2023/01/06 13:04:02;;;;;;;7.72;1.45;;;14.10;99.90;;;;;;5074407;28;20051;-79
2023/01/06 13:06:35;;;;;;;3.95;0.90;;;14.10;99.90;;;;;;5074022;28;20087;-79
2023/01/06 13:09:35;;;;;;;4.22;0.82;;;13.90;99.90;;;;;;5074168;28;20044;-79